Time;durP1;ratioP1;P1;durP2;ratioP2;P2;SDS_P1;SDS_P2;PMS_P1;PMS_P2;Temp;Humidity;BMP_temperature;BMP_pressure;BME280_temperature;BME280_humidity;BME280_pressure;Samples;Min_cycle;Max_cycle;Signal;HPM_P1;HPM_P2
2021/10/15 06:20:26;;;;;;;;;32.00;28.00;;;;;10.93;62.73;101593.63;4951216;28;45499;-81
2021/10/15 06:23:41;;;;;;;;;;;;;;;;;;;;;
2021/10/15 06:29:50;;;;;;;;;39.50;35.00;;;;;10.94;62.94;101587.47;4892749;28;45518;-80
2021/10/15 06:35:48;;;;;;;;;;;;;;;;;;;;;
2021/10/15 06:38:24;;;;;;;;;;;;;;;;;;;;;
2021/10/15 06:40:52;;;;;;;;;38.25;35.25;;;;;11.02;63.29;101593.69;4966233;28;74179;-81
2021/10/15 06:47:34;;;;;;;;;;;;;;;;;;;;;
2021/10/15 06:54:07;;;;;;;;;36.75;33.50;;;;;11.09;63.20;101588.47;4763802;29;46452;-80
2021/10/15 06:57:06;;;;;;;;;;;;;;;;;;;;;
2021/10/15 06:59:34;;;;;;;;;33.50;31.75;;;;;11.11;63.57;101587.59;4979523;28;69479;-80
2021/10/15 07:02:38;;;;;;;;;;;;;;;;;;;;;
2021/10/15 07:05:50;;;;;;;;;36.50;34.50;;;;;11.24;63.33;101583.31;4969307;28;74534;-80
2021/10/15 07:08:28;;;;;;;;;;;;;;;;;;;;;
2021/10/15 07:26:06;;;;;;;;;;;;;;;;;;;;;
2021/10/15 10:41:34;;;;;;;;;26.75;23.25;;;;;17.22;51.82;101659.25;4971308;23;45354;-89
2021/10/15 10:44:02;;;;;;;;;28.00;22.75;;;;;17.46;51.37;101675.72;4964589;28;45968;-91
2021/10/15 10:46:29;;;;;;;;;22.00;21.00;;;;;17.57;51.18;101671.97;4957324;28;45495;-83
2021/10/15 10:48:54;;;;;;;;;28.25;23.25;;;;;17.71;51.14;101668.16;4974087;28;45613;-83
2021/10/15 10:51:31;;;;;;;;;23.75;22.50;;;;;17.87;50.96;101666.13;4980173;28;45509;-83
2021/10/15 10:54:05;;;;;;;;;23.75;23.25;;;;;18.11;50.87;101670.09;4972272;28;45336;-83
2021/10/15 10:56:39;;;;;;;;;22.00;20.25;;;;;18.29;50.47;101661.72;4956349;28;45383;-83
2021/10/15 10:59:25;;;;;;;;;21.00;18.75;;;;;18.54;50.18;101667.41;4967045;28;45419;-81
2021/10/15 11:02:14;;;;;;;;;22.75;22.25;;;;;18.77;50.21;101666.94;4948945;28;47174;-84
2021/10/15 11:04:42;;;;;;;;;21.50;20.75;;;;;19.01;49.80;101664.59;4975447;28;45266;-84
2021/10/15 11:07:21;;;;;;;;;24.00;20.25;;;;;19.14;49.14;101661.59;4980566;28;45494;-85
2021/10/15 11:09:56;;;;;;;;;21.25;19.25;;;;;19.33;48.97;101654.00;4963016;28;45433;-83
2021/10/15 11:12:42;;;;;;;;;20.25;18.75;;;;;19.53;48.45;101658.81;4979310;28;46508;-82
2021/10/15 11:15:09;;;;;;;;;20.50;16.00;;;;;19.67;47.67;101657.59;4980273;28;45484;-82
2021/10/15 11:17:41;;;;;;;;;20.50;20.25;;;;;19.72;47.87;101650.34;4960533;28;45598;-84
2021/10/15 11:20:18;;;;;;;;;22.50;19.50;;;;;19.93;47.63;101649.75;4973898;28;45464;-82
2021/10/15 11:23:00;;;;;;;;;16.00;16.00;;;;;20.13;47.24;101648.28;4968026;28;46899;-87
2021/10/15 11:25:46;;;;;;;;;15.00;12.25;;;;;20.33;46.48;101637.00;4975497;28;45481;-86
2021/10/15 11:28:19;;;;;;;;;15.75;14.75;;;;;20.42;46.08;101634.94;4963997;28;45474;-86
2021/10/15 11:30:47;;;;;;;;;16.25;15.00;;;;;20.45;46.08;101634.84;4978578;28;45713;-84
2021/10/15 11:33:18;;;;;;;;;15.00;15.00;;;;;20.51;46.08;101631.09;4962439;28;48296;-82
2021/10/15 11:35:46;;;;;;;;;15.00;14.33;;;;;20.63;45.88;101643.25;4974422;28;45425;-83
2021/10/15 11:38:21;;;;;;;;;14.00;14.00;;;;;20.76;45.84;101627.69;4974220;28;45318;-82
2021/10/15 11:40:57;;;;;;;;;16.00;14.33;;;;;20.95;45.65;101639.56;4975660;28;45667;-84
2021/10/15 11:43:28;;;;;;;;;14.00;13.00;;;;;21.03;44.81;101634.81;4971538;28;46205;-85
2021/10/15 11:46:09;;;;;;;;;15.25;15.25;;;;;21.12;44.60;101626.50;4979205;28;45750;-83
2021/10/15 11:48:42;;;;;;;;;16.00;14.00;;;;;21.34;44.07;101631.13;4979223;28;45417;-84
2021/10/15 11:51:14;;;;;;;;;9.67;9.33;;;;;21.52;42.56;101626.97;4961770;28;45412;-84
2021/10/15 11:53:42;;;;;;;;;15.00;15.00;;;;;21.44;43.13;101631.69;4959748;28;47391;-86
2021/10/15 11:56:13;;;;;;;;;12.25;11.75;;;;;21.48;43.69;101619.94;4978778;28;45439;-84
2021/10/15 11:58:42;;;;;;;;;12.67;12.67;;;;;21.78;43.55;101634.06;4978688;28;45514;-89
2021/10/15 12:01:31;;;;;;;;;18.25;14.25;;;;;22.16;43.23;101629.97;4962536;28;45342;-86
2021/10/15 12:04:04;;;;;;;;;13.00;10.67;;;;;22.71;42.40;101632.31;4981583;28;45545;-87
2021/10/15 12:06:41;;;;;;;;;13.67;12.67;;;;;23.40;41.21;101624.13;4975229;28;45429;-82
2021/10/15 12:09:16;;;;;;;;;6.67;6.00;;;;;24.32;40.27;101619.97;4980653;28;45462;-82
2021/10/15 12:12:05;;;;;;;;;13.33;13.33;;;;;25.68;39.34;101606.91;4962267;28;45629;-81
2021/10/15 12:14:35;;;;;;;;;13.67;12.00;;;;;28.55;37.32;101602.66;4960589;28;47452;-80
2021/10/15 12:17:03;;;;;;;;;13.67;12.00;;;;;30.88;34.48;101602.53;4962273;28;45517;-80
2021/10/15 12:19:47;;;;;;;;;18.00;15.00;;;;;32.74;31.43;101598.66;4959488;28;45421;-80
2021/10/15 12:22:19;;;;;;;;;12.00;11.67;;;;;34.20;28.48;101596.97;4973730;28;45629;-80
2021/10/15 12:24:47;;;;;;;;;15.00;15.00;;;;;35.25;28.15;101596.41;4969723;28;45325;-80
2021/10/15 12:27:21;;;;;;;;;14.00;12.00;;;;;36.20;26.21;101601.78;4978716;28;45364;-81
2021/10/15 12:29:58;;;;;;;;;13.00;13.00;;;;;36.98;25.17;101603.16;4968599;28;45429;-82
2021/10/15 12:32:28;;;;;;;;;11.00;11.00;;;;;37.70;24.91;101606.69;4964063;28;45601;-82
2021/10/15 12:35:25;;;;;;;;;17.50;16.25;;;;;38.56;22.91;101606.56;4969778;28;47079;-82
2021/10/15 12:37:56;;;;;;;;;14.00;13.00;;;;;39.29;22.38;101601.31;4969863;28;45925;-81
2021/10/15 12:40:37;;;;;;;;;11.00;11.00;;;;;39.88;21.17;101597.31;4973181;28;45596;-82
2021/10/15 12:43:17;;;;;;;;;10.67;10.33;;;;;40.02;20.22;101592.94;4967876;28;45577;-82
2021/10/15 12:46:04;;;;;;;;;10.00;10.00;;;;;39.68;20.21;101594.03;4973131;28;45358;-82
2021/10/15 12:48:34;;;;;;;;;14.33;14.33;;;;;38.04;20.05;101595.72;4961494;28;45467;-82
2021/10/15 12:51:13;;;;;;;;;11.33;10.00;;;;;35.92;21.71;101592.63;4978248;28;45422;-82
2021/10/15 12:53:50;;;;;;;;;10.33;9.00;;;;;33.75;22.66;101591.84;4966485;28;45279;-82
2021/10/15 12:56:21;;;;;;;;;8.00;8.00;;;;;31.94;23.47;101590.72;4978442;28;45750;-82
2021/10/15 12:58:53;;;;;;;;;9.00;7.67;;;;;30.75;25.49;101599.00;4952528;28;45537;-82
2021/10/15 13:01:27;;;;;;;;;8.00;8.00;;;;;32.02;25.51;101586.41;4967928;28;45443;-82
2021/10/15 13:03:54;;;;;;;;;6.00;6.00;;;;;33.57;24.76;101586.16;4970713;28;45449;-82
2021/10/15 13:06:20;;;;;;;;;7.00;6.00;;;;;34.54;23.67;101593.88;4976533;28;46362;-82
2021/10/15 13:08:51;;;;;;;;;6.33;6.00;;;;;33.70;23.65;101594.97;4968763;28;46289;-82
2021/10/15 13:11:21;;;;;;;;;5.33;5.00;;;;;32.17;23.70;101597.03;4956796;28;45550;-82
2021/10/15 13:13:52;;;;;;;;;4.00;4.00;;;;;30.41;25.15;101595.19;4957621;28;45541;-82
2021/10/15 13:16:18;;;;;;;;;3.67;3.67;;;;;29.10;26.72;101587.25;4966600;28;45465;-82
2021/10/15 13:18:44;;;;;;;;;3.33;3.33;;;;;28.07;27.52;101583.19;4973427;28;45509;-82
2021/10/15 13:21:11;;;;;;;;;6.00;6.00;;;;;27.24;28.87;101591.00;4978812;28;45298;-82
2021/10/15 13:23:37;;;;;;;;;6.33;6.33;;;;;26.70;29.52;101587.84;4965828;28;45442;-82
2021/10/15 13:26:03;;;;;;;;;4.67;4.67;;;;;26.72;30.58;101591.34;4978050;28;45606;-82
2021/10/15 13:28:32;;;;;;;;;7.00;6.00;;;;;26.83;30.57;101586.16;4979211;28;45318;-84
2021/10/15 13:30:58;;;;;;;;;6.00;6.00;;;;;26.49;31.13;101598.00;4974825;28;45564;-82
2021/10/15 13:33:25;;;;;;;;;6.00;6.00;;;;;26.02;31.50;101588.94;4959019;28;45835;-82
2021/10/15 13:35:53;;;;;;;;;4.00;4.00;;;;;25.59;32.22;101603.84;4964721;28;45459;-82
2021/10/15 13:38:22;;;;;;;;;6.33;5.00;;;;;25.14;33.00;101594.47;4965743;28;45307;-81
2021/10/15 13:43:42;;;;;;;;;8.67;7.00;;;;;24.58;34.18;101590.97;4975516;28;45397;-82
2021/10/15 13:46:15;;;;;;;;;7.67;7.67;;;;;24.34;34.55;101598.38;4959240;28;45739;-81
2021/10/15 13:51:24;;;;;;;;;5.00;4.00;;;;;23.76;35.64;101584.00;4977052;28;45608;-81
2021/10/15 13:53:50;;;;;;;;;6.67;6.67;;;;;23.51;35.71;101580.63;4969634;28;45829;-81
2021/10/15 13:56:17;;;;;;;;;7.00;6.00;;;;;23.41;35.65;101590.03;4980799;28;46165;-81
2021/10/15 13:58:46;;;;;;;;;5.33;5.33;;;;;23.38;36.00;101595.56;4967935;28;45337;-81
2021/10/15 14:06:04;;;;;;;;;5.33;4.33;;;;;24.26;35.90;101587.09;4971398;28;45819;-80
2021/10/15 14:08:30;;;;;;;;;5.00;5.00;;;;;24.78;35.20;101581.88;4982187;28;45289;-81
2021/10/15 14:10:56;;;;;;;;;5.67;4.33;;;;;25.07;34.91;101580.41;4979086;28;45391;-81
2021/10/15 14:13:22;;;;;;;;;3.00;3.00;;;;;25.78;34.72;101585.72;4984828;28;45532;-82
2021/10/15 14:15:48;;;;;;;;;8.00;6.00;;;;;27.02;33.19;101572.44;4978230;28;45423;-82
2021/10/15 14:18:14;;;;;;;;;4.00;3.00;;;;;28.13;31.81;101572.81;4970013;28;45524;-82
2021/10/15 14:20:40;;;;;;;;;8.00;5.00;;;;;28.85;30.91;101566.34;4963812;28;45516;-82
2021/10/15 14:23:06;;;;;;;;;5.00;5.00;;;;;29.22;29.92;101568.31;4968490;28;45246;-82
2021/10/15 14:25:32;;;;;;;;;4.00;4.00;;;;;28.97;29.70;101574.50;4981467;28;46306;-82
2021/10/15 14:27:58;;;;;;;;;5.00;5.00;;;;;28.86;29.22;101568.06;4963366;28;46018;-81
2021/10/15 14:30:24;;;;;;;;;6.00;5.33;;;;;28.60;30.13;101570.69;4979857;28;45388;-82
2021/10/15 14:32:52;;;;;;;;;5.67;5.00;;;;;28.17;30.04;101570.75;4974141;28;45538;-82
2021/10/15 14:35:19;;;;;;;;;5.33;5.33;;;;;28.74;30.33;101569.78;4967744;28;45573;-82
2021/10/15 14:37:45;;;;;;;;;5.00;5.00;;;;;29.61;29.80;101565.59;4991699;28;45458;-82
2021/10/15 14:40:12;;;;;;;;;7.00;6.00;;;;;30.17;28.61;101565.25;4981342;28;45453;-82
2021/10/15 14:42:39;;;;;;;;;4.00;4.00;;;;;30.78;28.09;101564.25;4979997;28;45399;-82
2021/10/15 14:45:05;;;;;;;;;5.00;5.00;;;;;31.11;27.58;101567.25;4976830;28;46221;-82
2021/10/15 14:47:31;;;;;;;;;7.67;6.00;;;;;30.78;27.46;101558.81;4983505;28;45517;-82
2021/10/15 14:49:56;;;;;;;;;6.33;5.00;;;;;30.04;27.78;101559.81;4966039;28;45496;-82
2021/10/15 14:52:22;;;;;;;;;5.33;5.00;;;;;29.26;28.59;101558.09;4971636;28;45407;-82
2021/10/15 14:54:48;;;;;;;;;5.33;4.00;;;;;28.44;28.95;101559.13;4973931;28;46074;-83
2021/10/15 14:57:15;;;;;;;;;7.00;6.00;;;;;27.73;29.85;101558.22;4953187;28;45475;-82
2021/10/15 14:59:40;;;;;;;;;5.00;5.00;;;;;27.15;30.61;101559.06;4966867;28;45375;-82
2021/10/15 15:02:10;;;;;;;;;5.00;5.00;;;;;26.98;31.26;101557.38;4979091;28;45396;-82
2021/10/15 15:04:36;;;;;;;;;4.00;3.33;;;;;27.91;30.71;101562.50;4976000;28;46336;-82
2021/10/15 15:07:01;;;;;;;;;5.00;4.00;;;;;28.75;29.64;101555.25;4959192;28;45450;-82
2021/10/15 15:09:27;;;;;;;;;5.00;5.00;;;;;29.31;29.57;101560.50;4969044;28;45508;-82
2021/10/15 15:11:53;;;;;;;;;5.67;5.00;;;;;29.80;28.11;101552.47;4985458;28;45485;-81
2021/10/15 15:14:18;;;;;;;;;5.00;5.00;;;;;30.37;28.30;101561.97;4978941;28;45866;-81
2021/10/15 15:16:44;;;;;;;;;3.33;3.00;;;;;30.52;27.62;101560.78;4951301;28;45435;-82
2021/10/15 15:19:09;;;;;;;;;5.00;5.00;;;;;30.46;27.69;101552.25;4983332;28;45369;-82
2021/10/15 15:21:35;;;;;;;;;5.67;5.00;;;;;30.91;27.19;101550.63;4980666;28;45408;-82
2021/10/15 15:24:01;;;;;;;;;4.00;4.00;;;;;31.48;26.83;101551.66;4971961;28;46517;-82
2021/10/15 15:26:26;;;;;;;;;3.67;3.67;;;;;31.88;25.40;101555.78;4980068;28;45894;-81
2021/10/15 15:28:53;;;;;;;;;5.00;5.00;;;;;31.65;25.60;101555.78;4958042;28;45438;-81
2021/10/15 15:31:19;;;;;;;;;5.00;4.00;;;;;31.03;25.59;101553.38;4974818;28;45183;-81
2021/10/15 15:33:49;;;;;;;;;4.00;4.00;;;;;29.96;26.04;101559.53;4977300;28;46002;-82
2021/10/15 15:36:14;;;;;;;;;6.00;6.00;;;;;28.67;27.37;101563.03;4972053;28;45578;-81
2021/10/15 15:38:39;;;;;;;;;3.00;3.00;;;;;27.79;28.59;101559.66;4978240;28;45340;-83
2021/10/15 15:41:28;;;;;;;;;5.00;5.00;;;;;27.96;29.15;101564.91;4976042;28;45386;-83
2021/10/15 15:43:56;;;;;;;;;4.00;4.00;;;;;27.78;29.20;101569.63;4981833;28;46291;-80
2021/10/15 15:46:21;;;;;;;;;5.00;4.00;;;;;27.12;29.60;101565.50;4961897;28;45436;-81
2021/10/15 15:48:49;;;;;;;;;5.00;4.00;;;;;26.37;29.80;101572.59;4959911;28;45431;-89
2021/10/15 15:51:15;;;;;;;;;6.67;5.67;;;;;25.59;31.75;101576.88;4979869;28;45473;-86
2021/10/15 15:53:42;;;;;;;;;4.00;4.00;;;;;24.90;32.55;101578.59;4945379;28;46088;-85
2021/10/15 15:56:09;;;;;;;;;5.00;5.00;;;;;24.29;33.49;101577.03;4970117;28;45342;-87
2021/10/15 15:58:35;;;;;;;;;5.33;5.00;;;;;23.81;34.44;101577.53;4951359;28;45441;-86
2021/10/15 16:01:00;;;;;;;;;3.67;3.67;;;;;23.35;35.34;101577.75;4981338;28;45615;-86
2021/10/15 16:03:26;;;;;;;;;6.00;6.00;;;;;22.98;35.43;101578.47;4960195;28;46241;-86
2021/10/15 16:05:52;;;;;;;;;5.67;5.67;;;;;22.71;37.00;101583.13;4957111;28;45344;-87
2021/10/15 16:08:18;;;;;;;;;4.33;4.33;;;;;22.39;37.17;101577.25;4963001;28;45369;-87
2021/10/15 16:10:43;;;;;;;;;6.67;5.67;;;;;22.23;37.48;101576.97;4962116;28;45540;-88
2021/10/15 16:13:09;;;;;;;;;6.00;6.00;;;;;22.09;38.22;101582.84;4963802;28;46865;-91
2021/10/15 16:15:34;;;;;;;;;7.33;6.00;;;;;21.88;38.15;101573.81;4964913;28;45417;-89
2021/10/15 16:18:00;;;;;;;;;7.67;7.67;;;;;21.75;39.40;101584.09;4980179;28;45509;-91
2021/10/15 16:20:26;;;;;;;;;7.67;6.67;;;;;21.61;39.02;101578.38;4962410;28;45425;-90
2021/10/15 16:22:52;;;;;;;;;7.33;7.33;;;;;21.41;39.51;101568.41;4951738;28;47046;-91
2021/10/15 16:25:20;;;;;;;;;10.00;8.67;;;;;21.34;40.00;101586.44;4969062;28;45293;-90
2021/10/15 16:27:46;;;;;;;;;8.67;8.67;;;;;21.20;40.40;101583.38;4952451;28;45605;-89
2021/10/15 16:30:12;;;;;;;;;7.00;7.00;;;;;21.04;40.67;101590.19;4975520;28;45470;-87
2021/10/15 16:32:39;;;;;;;;;11.00;9.67;;;;;20.93;41.00;101593.25;4964124;28;47106;-88
2021/10/15 16:35:07;;;;;;;;;11.00;9.33;;;;;20.79;41.36;101584.75;4961620;28;46067;-87
2021/10/15 16:37:36;;;;;;;;;13.33;11.00;;;;;20.71;41.49;101590.38;4971845;28;45294;-85
2021/10/15 16:40:05;;;;;;;;;14.67;12.33;;;;;20.61;42.33;101594.25;4977208;28;45524;-91
2021/10/15 16:42:31;;;;;;;;;14.75;14.75;;;;;20.53;42.89;101596.25;4955681;28;47114;-89
2021/10/15 17:04:19;;;;;;;;;13.67;13.00;;;;;19.59;44.33;101602.56;5500250;23;46552;-89
